Terminal Aerodrome Forecast
Issued by NWS

Home | Current Version | Previous Version | Text Only | Print | Product List | Glossary On
Versions: 1 2 3 4 5 6 7 8 9 10 11 12 13 14 15 16
000
FTUS43 KAPX 232324
TAFMBL
TAF
KMBL 232324Z 2400/2424 16006KT P6SM OVC060
     FM240200 16007KT P6SM OVC050
     FM240400 17008KT P6SM -RA OVC040 WS020/19040KT
     FM240900 20007KT P6SM -RA OVC030
     FM241200 20004KT 4SM -RA OVC015
     FM241400 20004KT 3SM BR VCSH OVC008
     FM242000 34006KT 2SM -RA BR OVC005
     FM242200 01006KT 2SM -RA BR OVC005=

USA.gov is the U.S. government's official web portal to all federal, state and local government web resources and services.